Time;durP1;ratioP1;P1;durP2;ratioP2;P2;SDS_P1;SDS_P2;PMS_P1;PMS_P2;Temp;Humidity;BMP_temperature;BMP_pressure;BME280_temperature;BME280_humidity;BME280_pressure;Samples;Min_cycle;Max_cycle;Signal;HPM_P1;HPM_P2
2023/11/22 00:00:12;;;;;;;37.73;21.97;;;8.00;99.90;;;;;;7289606;19;20265;-82
2023/11/22 00:02:37;;;;;;;40.30;22.80;;;8.00;99.90;;;;;;7290515;19;20209;-82
2023/11/22 00:05:05;;;;;;;37.37;21.33;;;8.00;99.90;;;;;;7288938;19;20196;-82
2023/11/22 00:07:33;;;;;;;39.00;22.30;;;8.10;99.90;;;;;;7288442;19;20567;-82
2023/11/22 00:10:01;;;;;;;40.70;22.70;;;8.10;99.90;;;;;;7287138;19;20211;-82
2023/11/22 00:12:27;;;;;;;39.47;21.77;;;8.20;99.90;;;;;;7302066;19;20221;-81
2023/11/22 00:14:54;;;;;;;38.47;21.70;;;8.10;99.90;;;;;;7310214;19;20189;-82
2023/11/22 00:17:20;;;;;;;43.07;23.27;;;8.20;99.90;;;;;;7287334;19;20184;-81
2023/11/22 00:19:45;;;;;;;41.40;22.47;;;8.20;99.90;;;;;;7288640;19;20221;-84
2023/11/22 00:22:14;;;;;;;36.97;21.73;;;8.20;99.90;;;;;;7288143;19;20188;-82
2023/11/22 00:24:41;;;;;;;37.43;19.83;;;7.90;99.90;;;;;;7287506;19;20651;-81
2023/11/22 00:27:07;;;;;;;38.57;21.77;;;7.90;99.90;;;;;;7287654;19;20188;-82
2023/11/22 00:29:33;;;;;;;40.23;22.50;;;8.00;99.90;;;;;;7288657;19;20188;-82
2023/11/22 00:31:59;;;;;;;41.73;23.87;;;8.00;99.90;;;;;;7287552;19;20205;-81
2023/11/22 00:34:26;;;;;;;39.00;21.87;;;8.00;99.90;;;;;;7308986;19;20209;-82
2023/11/22 00:36:52;;;;;;;38.03;22.73;;;8.00;99.90;;;;;;7287997;19;20183;-82
2023/11/22 00:39:18;;;;;;;41.53;24.17;;;7.90;99.90;;;;;;7288353;19;20605;-82
2023/11/22 00:41:44;;;;;;;41.10;21.77;;;8.00;99.90;;;;;;7286632;19;20264;-82
2023/11/22 00:44:10;;;;;;;45.20;24.43;;;8.00;99.90;;;;;;7286333;19;20196;-81
2023/11/22 00:46:39;;;;;;;43.73;23.33;;;7.90;99.90;;;;;;7286332;19;20618;-81
2023/11/22 00:49:05;;;;;;;41.13;22.83;;;7.80;99.90;;;;;;7287113;19;20184;-82
2023/11/22 00:51:33;;;;;;;43.40;23.60;;;7.70;99.90;;;;;;7288021;19;20284;-82
2023/11/22 00:53:59;;;;;;;42.93;23.57;;;7.80;99.90;;;;;;7286842;19;20187;-81
2023/11/22 00:56:25;;;;;;;46.20;24.57;;;7.90;99.90;;;;;;7310191;19;20189;-82
2023/11/22 00:58:53;;;;;;;42.07;23.47;;;7.90;99.90;;;;;;7287178;19;20201;-82
2023/11/22 01:01:22;;;;;;;45.00;23.70;;;8.00;99.90;;;;;;7286682;19;20189;-82
2023/11/22 01:03:47;;;;;;;46.97;24.83;;;8.00;99.90;;;;;;7287510;19;20637;-83
2023/11/22 01:06:13;;;;;;;41.17;22.80;;;8.00;99.90;;;;;;7285609;19;20224;-82
2023/11/22 01:08:39;;;;;;;43.97;22.93;;;8.10;99.90;;;;;;7287349;19;20185;-82
2023/11/22 01:11:05;;;;;;;42.17;22.80;;;8.10;99.90;;;;;;7286554;19;20189;-82
2023/11/22 01:13:42;;;;;;;45.50;24.97;;;8.10;99.90;;;;;;7287811;19;20626;-82
2023/11/22 01:16:12;;;;;;;44.33;23.60;;;8.10;99.90;;;;;;7286691;19;20185;-83
2023/11/22 01:18:38;;;;;;;43.33;23.27;;;8.00;99.90;;;;;;7284814;19;20683;-82
2023/11/22 01:21:04;;;;;;;43.93;23.23;;;7.90;99.90;;;;;;7285731;19;20185;-83
2023/11/22 01:23:31;;;;;;;44.00;24.60;;;8.00;99.90;;;;;;7285733;19;20640;-82
2023/11/22 01:25:58;;;;;;;44.57;23.63;;;7.90;99.90;;;;;;7298437;19;20652;-82
2023/11/22 01:28:26;;;;;;;44.00;24.33;;;7.80;99.90;;;;;;7308671;19;20616;-83
2023/11/22 01:30:54;;;;;;;45.57;24.20;;;7.80;99.90;;;;;;7285999;19;20243;-82
2023/11/22 01:33:21;;;;;;;44.10;23.40;;;7.80;99.90;;;;;;7283592;19;20660;-82
2023/11/22 01:35:47;;;;;;;43.40;24.00;;;7.80;99.90;;;;;;7285896;19;20190;-82
2023/11/22 01:38:12;;;;;;;49.53;25.33;;;7.70;99.90;;;;;;7285665;19;20277;-82
2023/11/22 01:40:48;;;;;;;44.83;24.63;;;7.70;99.90;;;;;;7286988;19;20184;-82
2023/11/22 01:43:23;;;;;;;45.33;24.57;;;7.70;99.90;;;;;;7285534;19;20207;-82
2023/11/22 01:45:50;;;;;;;46.70;24.40;;;7.60;99.90;;;;;;7285133;19;20356;-82
2023/11/22 01:48:16;;;;;;;43.80;24.73;;;7.60;99.90;;;;;;7285204;19;20187;-82
2023/11/22 01:50:44;;;;;;;43.00;24.10;;;7.70;99.90;;;;;;7284849;19;20244;-82
2023/11/22 01:53:12;;;;;;;50.20;24.73;;;7.90;99.90;;;;;;7285215;19;20191;-83
2023/11/22 01:55:39;;;;;;;45.67;24.70;;;7.80;99.90;;;;;;7284088;19;20773;-83
2023/11/22 01:58:06;;;;;;;44.90;23.80;;;7.70;99.90;;;;;;7285175;19;21568;-83
2023/11/22 02:00:36;;;;;;;43.73;23.57;;;7.60;99.90;;;;;;7282534;19;20228;-82
2023/11/22 02:03:02;;;;;;;44.83;24.10;;;7.60;99.90;;;;;;7284530;19;20177;-82
2023/11/22 02:05:28;;;;;;;45.10;24.77;;;7.50;99.90;;;;;;7291549;19;20189;-82
2023/11/22 02:07:55;;;;;;;46.27;26.13;;;7.50;99.90;;;;;;7306293;19;20205;-83
2023/11/22 02:10:20;;;;;;;45.97;24.27;;;7.50;99.90;;;;;;7283975;19;20208;-83
2023/11/22 02:12:46;;;;;;;46.47;25.07;;;7.50;99.90;;;;;;7285901;19;20540;-83
2023/11/22 02:15:12;;;;;;;47.57;25.27;;;7.50;99.90;;;;;;7285911;19;20194;-82
2023/11/22 02:17:39;;;;;;;47.27;24.87;;;7.50;99.90;;;;;;7283959;19;20189;-82
2023/11/22 02:20:09;;;;;;;45.27;24.23;;;7.50;99.90;;;;;;7285878;19;20194;-82
2023/11/22 02:22:45;;;;;;;47.73;24.87;;;7.60;99.90;;;;;;7285023;19;20180;-82
2023/11/22 02:25:11;;;;;;;44.47;24.20;;;7.60;99.90;;;;;;7285412;19;20184;-83
2023/11/22 02:27:37;;;;;;;47.77;24.53;;;7.70;99.90;;;;;;7284766;19;20185;-83
2023/11/22 02:30:06;;;;;;;45.73;24.40;;;7.70;99.90;;;;;;7283115;19;20188;-82
2023/11/22 02:32:33;;;;;;;45.10;24.07;;;7.70;99.90;;;;;;7285167;19;20181;-82
2023/11/22 02:34:59;;;;;;;46.67;23.90;;;7.60;99.90;;;;;;7284186;19;20189;-82
2023/11/22 02:37:26;;;;;;;42.57;23.57;;;7.60;99.90;;;;;;7305749;19;20202;-83
2023/11/22 02:40:11;;;;;;;45.63;23.73;;;7.60;99.90;;;;;;7284222;19;20260;-83
2023/11/22 02:42:38;;;;;;;45.60;23.30;;;7.70;99.90;;;;;;7181526;19;2006224;-82
2023/11/22 02:45:05;;;;;;;43.97;24.33;;;7.90;99.90;;;;;;7282901;19;20671;-82
2023/11/22 02:47:31;;;;;;;46.53;24.23;;;7.90;99.90;;;;;;7282763;19;20253;-82
2023/11/22 02:49:57;;;;;;;41.67;23.27;;;7.90;99.90;;;;;;7299750;19;20208;-82
2023/11/22 02:52:24;;;;;;;42.37;21.93;;;7.80;99.90;;;;;;7298027;19;20185;-82
2023/11/22 02:54:49;;;;;;;43.87;23.57;;;7.60;99.90;;;;;;7283911;19;20184;-83
2023/11/22 02:57:15;;;;;;;42.27;21.10;;;7.60;99.90;;;;;;7282103;19;20187;-82
2023/11/22 02:59:44;;;;;;;44.23;23.67;;;7.50;99.90;;;;;;7281953;19;20200;-82
2023/11/22 03:02:11;;;;;;;43.47;22.27;;;7.30;99.90;;;;;;7282276;19;20629;-82
2023/11/22 03:04:37;;;;;;;43.47;22.63;;;7.30;99.90;;;;;;7281872;19;20265;-82
2023/11/22 03:07:03;;;;;;;43.17;22.63;;;7.20;99.90;;;;;;7282266;19;20201;-82
2023/11/22 03:09:29;;;;;;;47.20;24.17;;;7.10;99.90;;;;;;7283040;19;20860;-82
2023/11/22 03:11:56;;;;;;;48.73;23.63;;;7.10;99.90;;;;;;7304056;19;20637;-82
2023/11/22 03:14:21;;;;;;;44.77;24.40;;;6.90;99.90;;;;;;7281501;19;20668;-82
2023/11/22 03:16:48;;;;;;;48.10;24.70;;;6.90;99.90;;;;;;7283892;19;20257;-83
2023/11/22 03:19:14;;;;;;;47.17;24.60;;;6.90;99.90;;;;;;7289066;19;20198;-82
2023/11/22 03:21:41;;;;;;;49.10;24.50;;;6.90;99.90;;;;;;7286914;19;20190;-82
2023/11/22 03:24:08;;;;;;;49.00;25.23;;;7.00;99.90;;;;;;7289119;19;20237;-82
2023/11/22 03:26:34;;;;;;;45.90;23.87;;;7.00;99.90;;;;;;7290163;19;20197;-82
2023/11/22 03:29:00;;;;;;;46.30;24.23;;;7.10;99.90;;;;;;7288881;19;20199;-82
2023/11/22 03:31:29;;;;;;;44.70;23.67;;;7.20;99.90;;;;;;7312118;19;20290;-82
2023/11/22 03:33:56;;;;;;;46.53;24.40;;;7.40;99.90;;;;;;7289808;19;20199;-81
2023/11/22 03:36:22;;;;;;;47.73;25.10;;;7.40;99.90;;;;;;7288723;19;20194;-82
2023/11/22 03:38:49;;;;;;;44.93;23.57;;;7.40;99.90;;;;;;7291230;19;20226;-82
2023/11/22 03:41:15;;;;;;;43.73;23.07;;;7.20;99.90;;;;;;7289186;19;20204;-81
2023/11/22 03:43:41;;;;;;;47.63;23.10;;;7.10;99.90;;;;;;7289681;19;20196;-82
2023/11/22 03:46:06;;;;;;;45.63;23.17;;;7.00;99.90;;;;;;7288355;19;20728;-82
2023/11/22 03:48:32;;;;;;;46.00;23.60;;;7.00;99.90;;;;;;7287736;19;20196;-81
2023/11/22 03:51:00;;;;;;;41.57;22.30;;;7.10;99.90;;;;;;7289071;19;20539;-82
2023/11/22 03:53:26;;;;;;;41.43;22.00;;;6.90;99.90;;;;;;7311095;19;20201;-83
2023/11/22 03:55:52;;;;;;;47.67;23.53;;;6.90;99.90;;;;;;7288362;19;20184;-82
2023/11/22 03:58:18;;;;;;;46.83;23.83;;;6.90;99.90;;;;;;7287822;19;20267;-82
2023/11/22 04:00:44;;;;;;;48.07;23.10;;;7.00;99.90;;;;;;7288166;19;20192;-82
2023/11/22 04:03:10;;;;;;;47.03;24.17;;;7.00;99.90;;;;;;7288766;19;20266;-82
2023/11/22 04:05:35;;;;;;;48.13;23.40;;;6.90;99.90;;;;;;7288716;19;20625;-82
2023/11/22 04:08:01;;;;;;;41.50;21.70;;;6.90;99.90;;;;;;7293731;19;20181;-82
2023/11/22 04:10:27;;;;;;;47.33;23.13;;;6.80;99.90;;;;;;7317119;19;20771;-81
2023/11/22 04:12:52;;;;;;;45.53;22.17;;;6.80;99.90;;;;;;7292809;19;20191;-82
2023/11/22 04:15:18;;;;;;;44.17;21.83;;;6.90;99.90;;;;;;7296083;19;20527;-82
2023/11/22 04:17:45;;;;;;;47.80;23.17;;;6.80;99.90;;;;;;7292371;19;20188;-82
2023/11/22 04:20:14;;;;;;;43.77;23.23;;;6.70;99.90;;;;;;7285259;19;20286;-82
2023/11/22 04:22:47;;;;;;;41.53;21.50;;;6.60;99.90;;;;;;7287839;19;20208;-82
2023/11/22 04:25:13;;;;;;;41.00;21.90;;;6.60;99.90;;;;;;7287317;19;20192;-82
2023/11/22 04:27:40;;;;;;;43.00;22.07;;;6.60;99.90;;;;;;7287082;19;20209;-82
2023/11/22 04:30:08;;;;;;;44.67;22.57;;;6.50;99.90;;;;;;7288302;19;20189;-82
2023/11/22 04:32:36;;;;;;;40.30;21.10;;;6.50;99.90;;;;;;7287482;19;20219;-82
2023/11/22 04:35:05;;;;;;;45.40;22.90;;;6.50;99.90;;;;;;7288664;19;20189;-82
2023/11/22 04:37:32;;;;;;;40.40;20.93;;;6.50;99.90;;;;;;7289928;19;20273;-82
2023/11/22 04:40:07;;;;;;;42.43;21.73;;;6.40;99.90;;;;;;7303847;19;20199;-82
2023/11/22 04:42:36;;;;;;;38.70;21.17;;;6.30;99.90;;;;;;7289562;19;20694;-82
2023/11/22 04:45:02;;;;;;;41.87;21.47;;;6.40;99.90;;;;;;7288443;19;20195;-82
2023/11/22 04:47:28;;;;;;;41.93;21.47;;;6.30;99.90;;;;;;7299971;19;20189;-82
2023/11/22 04:49:53;;;;;;;41.53;21.40;;;6.30;99.90;;;;;;7305508;19;20200;-83
2023/11/22 04:52:19;;;;;;;41.73;21.47;;;6.20;99.90;;;;;;7288227;19;20297;-82
2023/11/22 04:54:45;;;;;;;48.93;23.97;;;6.30;99.90;;;;;;7288187;19;20185;-82
2023/11/22 04:57:10;;;;;;;49.53;23.80;;;6.50;99.90;;;;;;7286631;19;20691;-82
2023/11/22 04:59:38;;;;;;;44.60;22.77;;;6.70;99.90;;;;;;7286680;19;20193;-82
2023/11/22 05:02:04;;;;;;;50.20;24.70;;;6.90;99.90;;;;;;7285366;19;20575;-83
2023/11/22 05:04:29;;;;;;;46.70;23.40;;;7.10;99.90;;;;;;7286207;19;20182;-82
2023/11/22 05:06:56;;;;;;;44.90;23.73;;;7.30;99.90;;;;;;7306415;19;20219;-83
2023/11/22 05:09:21;;;;;;;44.27;23.80;;;7.50;99.90;;;;;;7286303;19;20188;-83
2023/11/22 05:11:47;;;;;;;47.73;23.30;;;7.60;99.90;;;;;;7288166;19;20204;-83
2023/11/22 05:14:13;;;;;;;42.53;22.93;;;7.70;99.90;;;;;;7286528;19;20643;-83
2023/11/22 05:16:39;;;;;;;45.57;24.33;;;7.80;99.90;;;;;;7284606;19;20206;-83
2023/11/22 05:19:05;;;;;;;47.73;23.73;;;7.80;99.90;;;;;;7287004;19;20185;-82
2023/11/22 05:21:32;;;;;;;45.17;23.53;;;7.90;99.90;;;;;;7285629;19;20213;-82
2023/11/22 05:23:58;;;;;;;43.30;22.13;;;8.00;99.90;;;;;;7303356;19;20538;-81
2023/11/22 05:26:25;;;;;;;43.37;22.50;;;8.00;99.90;;;;;;7307789;19;20624;-83
2023/11/22 05:28:53;;;;;;;39.30;21.27;;;8.00;99.90;;;;;;7284371;19;20185;-83
2023/11/22 05:31:23;;;;;;;37.93;20.10;;;7.80;99.90;;;;;;7286100;19;20184;-82
2023/11/22 05:33:48;;;;;;;41.57;21.60;;;7.80;99.90;;;;;;7285161;19;20186;-82
2023/11/22 05:36:16;;;;;;;39.10;22.40;;;7.90;99.90;;;;;;7285480;19;20181;-83
2023/11/22 05:38:42;;;;;;;39.50;22.03;;;8.10;99.90;;;;;;7284538;19;20209;-82
2023/11/22 05:41:08;;;;;;;39.67;22.13;;;8.20;99.90;;;;;;7284178;19;20193;-83
2023/11/22 05:43:36;;;;;;;39.27;22.10;;;8.20;99.90;;;;;;7285355;19;20566;-83
2023/11/22 05:46:03;;;;;;;38.90;22.37;;;8.10;99.90;;;;;;7284681;19;20237;-82
2023/11/22 05:48:30;;;;;;;37.03;21.27;;;8.10;99.90;;;;;;7286744;19;20216;-82
2023/11/22 05:50:56;;;;;;;38.57;20.97;;;8.00;99.90;;;;;;7306981;19;20182;-84
2023/11/22 05:53:21;;;;;;;41.83;23.07;;;8.10;99.90;;;;;;7286513;19;20186;-84
2023/11/22 05:55:49;;;;;;;46.87;24.40;;;8.10;99.90;;;;;;7284535;19;20201;-84
2023/11/22 05:58:18;;;;;;;41.17;22.63;;;8.30;99.90;;;;;;7285141;19;20192;-86
2023/11/22 06:00:47;;;;;;;41.97;24.03;;;8.30;99.90;;;;;;7285054;19;20314;-84
2023/11/22 06:03:13;;;;;;;49.33;24.07;;;8.20;99.90;;;;;;7284738;19;20189;-84
2023/11/22 06:05:40;;;;;;;46.97;25.40;;;8.30;99.90;;;;;;7285549;19;20632;-84
2023/11/22 06:08:06;;;;;;;47.97;26.20;;;8.30;99.90;;;;;;7284624;19;20192;-82
2023/11/22 06:10:32;;;;;;;41.93;24.23;;;8.20;99.90;;;;;;7285903;19;20188;-84
2023/11/22 06:12:57;;;;;;;47.30;25.07;;;8.30;99.90;;;;;;7305583;19;20210;-83
2023/11/22 06:15:23;;;;;;;44.70;24.30;;;8.30;99.90;;;;;;7294255;19;20253;-84
2023/11/22 06:17:49;;;;;;;46.10;24.23;;;8.50;99.90;;;;;;7285299;19;20544;-83
2023/11/22 06:20:15;;;;;;;44.60;24.97;;;8.50;99.90;;;;;;7285171;19;20199;-84
2023/11/22 06:22:42;;;;;;;44.83;23.93;;;8.50;99.90;;;;;;7284649;19;20512;-82
2023/11/22 06:25:11;;;;;;;41.70;23.13;;;8.50;99.90;;;;;;7285545;19;20196;-84
2023/11/22 06:27:38;;;;;;;43.33;24.20;;;8.40;99.90;;;;;;7284120;19;20205;-81
2023/11/22 06:30:06;;;;;;;44.13;23.37;;;8.40;99.90;;;;;;7283636;19;20184;-85
2023/11/22 06:32:32;;;;;;;46.90;24.80;;;8.40;99.90;;;;;;7283575;19;20212;-83
2023/11/22 06:34:58;;;;;;;43.67;23.83;;;8.30;99.90;;;;;;7302850;19;20242;-81
2023/11/22 06:37:24;;;;;;;43.93;23.63;;;8.20;99.90;;;;;;7297863;19;20181;-83
2023/11/22 06:39:50;;;;;;;44.50;23.37;;;8.20;99.90;;;;;;7286956;19;20189;-83
2023/11/22 06:42:16;;;;;;;44.83;23.90;;;8.00;99.90;;;;;;7283894;19;20197;-84
2023/11/22 06:44:42;;;;;;;43.90;23.80;;;8.10;99.90;;;;;;7283996;19;20204;-84
2023/11/22 06:47:09;;;;;;;43.93;23.67;;;8.20;99.90;;;;;;7284410;19;20192;-85
2023/11/22 06:49:35;;;;;;;44.80;24.47;;;8.20;99.90;;;;;;7285042;19;20210;-83
2023/11/22 06:52:00;;;;;;;51.87;31.23;;;8.30;99.90;;;;;;7282211;19;20806;-83
2023/11/22 06:54:26;;;;;;;47.37;26.43;;;8.00;99.90;;;;;;7306744;19;20200;-83
2023/11/22 06:56:52;;;;;;;44.67;24.40;;;8.10;99.90;;;;;;7284922;19;20189;-84
2023/11/22 06:59:18;;;;;;;47.77;24.10;;;8.10;99.90;;;;;;7284778;19;20194;-84
2023/11/22 07:01:45;;;;;;;47.30;24.10;;;8.10;99.90;;;;;;7282282;19;20189;-83
2023/11/22 07:04:11;;;;;;;42.27;22.60;;;8.10;99.90;;;;;;7284695;19;20200;-80
2023/11/22 07:06:37;;;;;;;43.57;23.03;;;8.00;99.90;;;;;;7282669;19;20181;-80
2023/11/22 07:09:04;;;;;;;43.60;23.33;;;8.00;99.90;;;;;;7282207;19;20699;-80
2023/11/22 07:11:31;;;;;;;41.23;22.27;;;7.80;99.90;;;;;;7282307;19;20216;-78
2023/11/22 07:13:57;;;;;;;45.77;22.97;;;7.60;99.90;;;;;;7302857;19;20289;-78
2023/11/22 07:16:24;;;;;;;46.23;22.83;;;7.50;99.90;;;;;;7281603;19;20196;-78
2023/11/22 07:18:50;;;;;;;43.13;23.57;;;7.60;99.90;;;;;;7280397;19;20199;-78
2023/11/22 07:21:16;;;;;;;43.43;22.23;;;7.80;99.90;;;;;;7280579;19;20181;-78
2023/11/22 07:23:45;;;;;;;42.20;22.53;;;7.90;99.90;;;;;;7280979;19;20632;-78
2023/11/22 07:26:10;;;;;;;43.93;22.47;;;8.00;99.90;;;;;;7282513;19;20188;-78
2023/11/22 07:28:36;;;;;;;40.33;21.63;;;8.00;99.90;;;;;;7280432;19;20628;-77
2023/11/22 07:31:05;;;;;;;42.63;23.40;;;8.00;99.90;;;;;;7280431;19;20191;-77
2023/11/22 07:33:32;;;;;;;46.13;23.80;;;8.20;99.90;;;;;;7281280;19;20598;-77
2023/11/22 07:35:58;;;;;;;44.63;24.00;;;8.30;99.90;;;;;;7303453;19;20612;-77
2023/11/22 07:38:25;;;;;;;44.67;22.77;;;8.30;99.90;;;;;;7279474;19;20605;-78
2023/11/22 07:40:51;;;;;;;42.30;22.53;;;8.30;99.90;;;;;;7281839;19;20733;-79
2023/11/22 07:43:17;;;;;;;43.07;23.23;;;8.30;99.90;;;;;;7280959;19;20184;-78
2023/11/22 07:45:47;;;;;;;45.50;23.87;;;8.30;99.90;;;;;;7282644;19;20741;-79
2023/11/22 07:48:13;;;;;;;45.53;23.30;;;8.30;99.90;;;;;;7279060;19;20204;-79
2023/11/22 07:50:39;;;;;;;43.43;22.53;;;8.20;99.90;;;;;;7282844;19;20212;-79
2023/11/22 07:53:05;;;;;;;44.27;23.20;;;8.30;99.90;;;;;;7280142;19;20691;-79
2023/11/22 07:55:31;;;;;;;42.17;21.77;;;8.40;99.90;;;;;;7280104;19;20276;-79
2023/11/22 07:57:56;;;;;;;38.57;20.80;;;8.40;99.90;;;;;;7301725;19;20193;-80
2023/11/22 08:00:23;;;;;;;37.47;20.97;;;8.40;99.90;;;;;;7281248;19;20201;-79
2023/11/22 08:02:49;;;;;;;39.80;21.23;;;8.30;99.90;;;;;;7281351;19;20222;-79
2023/11/22 08:05:16;;;;;;;42.03;21.57;;;8.20;99.90;;;;;;7287553;19;20189;-80
2023/11/22 08:07:44;;;;;;;40.53;21.60;;;8.20;99.90;;;;;;7287351;19;20765;-80
2023/11/22 08:10:19;;;;;;;40.50;21.37;;;8.20;99.90;;;;;;7287332;19;20259;-79
2023/11/22 08:12:46;;;;;;;40.07;20.80;;;8.30;99.90;;;;;;7288771;19;20200;-80
2023/11/22 08:15:14;;;;;;;39.60;20.90;;;8.40;99.90;;;;;;7287757;19;20189;-80
2023/11/22 08:17:40;;;;;;;36.20;20.53;;;8.50;99.90;;;;;;7286134;19;20197;-80
2023/11/22 08:20:11;;;;;;;37.43;21.20;;;8.60;99.90;;;;;;7288753;19;20545;-81
2023/11/22 08:22:38;;;;;;;35.43;18.97;;;8.80;99.90;;;;;;7288318;19;20201;-80
2023/11/22 08:25:05;;;;;;;37.33;20.40;;;8.70;99.90;;;;;;7288232;19;20189;-79
2023/11/22 08:27:31;;;;;;;37.23;20.30;;;8.70;99.90;;;;;;7286279;19;20197;-80
2023/11/22 08:29:58;;;;;;;33.73;18.80;;;8.80;99.90;;;;;;7309286;19;20319;-80
2023/11/22 08:32:27;;;;;;;35.63;19.43;;;8.40;99.90;;;;;;7288213;19;20600;-79
2023/11/22 08:34:53;;;;;;;36.57;20.17;;;8.20;99.90;;;;;;7285196;19;20648;-79
2023/11/22 08:37:19;;;;;;;35.97;19.90;;;8.40;99.90;;;;;;7285605;19;20195;-79
2023/11/22 08:39:44;;;;;;;32.80;18.70;;;8.60;99.90;;;;;;7286116;19;20196;-79
2023/11/22 08:42:10;;;;;;;36.30;19.83;;;8.80;99.90;;;;;;7286619;19;20217;-79
2023/11/22 08:44:36;;;;;;;35.97;19.40;;;9.00;99.90;;;;;;7286885;19;20193;-80
2023/11/22 08:47:05;;;;;;;33.70;19.23;;;9.10;99.90;;;;;;7286265;19;20204;-79
2023/11/22 08:49:32;;;;;;;33.63;19.63;;;9.30;99.90;;;;;;7285416;19;20230;-79
2023/11/22 08:51:59;;;;;;;34.20;19.83;;;9.40;99.90;;;;;;7308690;19;20200;-80
2023/11/22 08:54:28;;;;;;;38.37;19.13;;;9.60;99.90;;;;;;7287257;19;20207;-80
2023/11/22 08:56:57;;;;;;;33.57;19.27;;;9.50;99.90;;;;;;7287145;19;20201;-79
2023/11/22 08:59:23;;;;;;;33.37;19.63;;;9.60;99.90;;;;;;7287199;19;20181;-79
2023/11/22 09:01:48;;;;;;;32.90;18.93;;;9.70;99.90;;;;;;7286699;19;20283;-79
2023/11/22 09:04:15;;;;;;;30.57;18.17;;;9.70;99.90;;;;;;7285802;19;20205;-79
2023/11/22 09:06:41;;;;;;;33.57;19.07;;;9.60;99.90;;;;;;7286632;19;20269;-79
2023/11/22 09:09:08;;;;;;;31.40;18.80;;;9.70;99.90;;;;;;7285468;19;20198;-79
2023/11/22 09:11:34;;;;;;;29.97;18.07;;;9.70;99.90;;;;;;7282188;19;20669;-80
2023/11/22 09:14:04;;;;;;;29.73;17.70;;;9.70;99.90;;;;;;7289246;19;20189;-79
2023/11/22 09:16:38;;;;;;;31.87;18.20;;;9.80;99.90;;;;;;7285571;19;20296;-79
2023/11/22 09:19:06;;;;;;;33.70;18.53;;;9.90;99.90;;;;;;7284908;19;20198;-79
2023/11/22 09:21:32;;;;;;;32.33;18.27;;;9.90;99.90;;;;;;7284904;19;20202;-79
2023/11/22 09:23:59;;;;;;;30.07;17.77;;;9.90;99.90;;;;;;7290662;19;20204;-80
2023/11/22 09:26:25;;;;;;;28.27;17.37;;;10.00;99.90;;;;;;7308729;19;20199;-79
2023/11/22 09:28:51;;;;;;;30.80;18.40;;;9.90;99.90;;;;;;7285050;19;20203;-79
2023/11/22 09:31:20;;;;;;;30.23;17.80;;;9.90;99.90;;;;;;7284477;19;20205;-80
2023/11/22 09:33:46;;;;;;;30.83;18.03;;;10.00;99.90;;;;;;7286231;19;20198;-79
2023/11/22 09:36:13;;;;;;;29.03;17.23;;;10.10;99.90;;;;;;7283103;19;20299;-80
2023/11/22 09:38:39;;;;;;;30.03;17.17;;;10.20;99.90;;;;;;7285186;19;20685;-79
2023/11/22 09:41:05;;;;;;;27.87;16.60;;;10.30;99.90;;;;;;7286314;19;20286;-80
2023/11/22 09:43:31;;;;;;;28.77;17.63;;;10.30;99.90;;;;;;7284981;19;20205;-79
2023/11/22 09:45:57;;;;;;;29.83;16.87;;;10.30;99.90;;;;;;7307422;19;20203;-80
2023/11/22 09:48:26;;;;;;;29.30;16.83;;;10.50;99.90;;;;;;7284021;19;20565;-79
2023/11/22 09:51:24;;;;;;;30.20;17.80;;;10.60;99.90;;;;;;7285812;19;20707;-79
2023/11/22 09:54:04;;;;;;;29.77;18.70;;;10.80;99.90;;;;;;7184230;19;2004809;-80
2023/11/22 09:56:32;;;;;;;30.17;17.77;;;10.90;99.90;;;;;;7267796;19;20195;-80
2023/11/22 09:59:00;;;;;;;32.00;18.33;;;10.90;99.90;;;;;;7308477;19;20192;-79
2023/11/22 10:01:33;;;;;;;33.47;17.47;;;10.90;99.90;;;;;;7283713;19;20208;-79
2023/11/22 10:03:59;;;;;;;30.23;18.00;;;10.90;99.90;;;;;;7278635;19;20190;-79
2023/11/22 10:06:25;;;;;;;28.80;16.90;;;10.80;99.90;;;;;;7305110;19;20203;-80
2023/11/22 10:08:52;;;;;;;27.53;17.00;;;10.80;99.90;;;;;;7282580;19;20194;-80
2023/11/22 10:11:18;;;;;;;27.83;16.73;;;10.90;99.90;;;;;;7285860;19;21221;-81
2023/11/22 10:13:47;;;;;;;28.30;17.00;;;11.00;99.90;;;;;;7285572;19;20190;-80
2023/11/22 10:16:17;;;;;;;28.43;17.30;;;11.10;99.90;;;;;;7281688;19;20209;-80
2023/11/22 10:18:44;;;;;;;29.37;17.87;;;11.40;99.90;;;;;;7285865;19;20188;-80
2023/11/22 10:21:28;;;;;;;31.03;17.97;;;11.60;99.90;;;;;;7284599;19;20579;-80
2023/11/22 10:24:04;;;;;;;29.50;17.10;;;11.70;99.90;;;;;;7284392;19;20544;-80
2023/11/22 10:26:30;;;;;;;26.23;16.20;;;11.70;99.90;;;;;;7268740;19;20190;-80
2023/11/22 10:28:57;;;;;;;27.50;16.30;;;11.40;99.90;;;;;;7306195;19;20206;-80
2023/11/22 10:31:24;;;;;;;25.87;15.93;;;11.70;99.90;;;;;;7282261;19;20199;-79
2023/11/22 10:33:50;;;;;;;24.47;15.57;;;11.70;99.90;;;;;;7281464;19;20177;-80
2023/11/22 10:36:17;;;;;;;24.07;15.37;;;12.30;99.90;;;;;;7284533;19;20185;-80
2023/11/22 10:38:47;;;;;;;24.37;14.80;;;12.30;99.90;;;;;;7284278;19;20686;-79
2023/11/22 10:41:13;;;;;;;23.80;14.80;;;12.00;99.90;;;;;;7283056;19;20189;-80
2023/11/22 10:43:41;;;;;;;25.07;15.67;;;12.10;99.90;;;;;;7283095;19;20265;-80
2023/11/22 10:46:11;;;;;;;27.40;15.03;;;12.00;99.90;;;;;;7282994;19;20196;-80
2023/11/22 10:48:41;;;;;;;23.00;14.70;;;11.80;99.90;;;;;;7284895;19;20686;-80
2023/11/22 10:51:13;;;;;;;26.13;15.23;;;12.00;99.90;;;;;;7283413;19;20667;-80
2023/11/22 10:53:48;;;;;;;23.57;14.40;;;11.80;99.90;;;;;;7282766;19;20200;-80
2023/11/22 10:56:22;;;;;;;23.13;14.60;;;12.10;99.90;;;;;;7283509;19;20200;-80
2023/11/22 10:58:55;;;;;;;23.63;13.70;;;12.50;99.90;;;;;;7283153;19;20563;-80
2023/11/22 11:01:23;;;;;;;22.40;14.43;;;13.00;99.90;;;;;;7282362;19;20248;-79
2023/11/22 11:03:57;;;;;;;24.60;14.57;;;13.20;99.90;;;;;;7283138;19;20195;-81
2023/11/22 11:06:27;;;;;;;21.53;13.17;;;13.70;99.90;;;;;;7281940;19;20202;-80
2023/11/22 11:08:58;;;;;;;19.53;12.80;;;14.60;99.90;;;;;;7283792;19;20184;-80
2023/11/22 11:11:25;;;;;;;21.17;13.77;;;15.10;99.90;;;;;;7284385;19;20658;-80
2023/11/22 11:13:52;;;;;;;21.63;12.73;;;14.90;99.90;;;;;;7286322;19;20196;-81
2023/11/22 11:16:19;;;;;;;22.03;13.07;;;14.70;99.90;;;;;;7287817;19;20206;-79
2023/11/22 11:18:47;;;;;;;20.67;13.00;;;14.40;99.90;;;;;;7289667;19;20603;-80
2023/11/22 11:21:14;;;;;;;22.30;13.23;;;14.40;99.90;;;;;;7289485;19;20203;-80
2023/11/22 11:23:44;;;;;;;21.43;14.03;;;14.50;99.90;;;;;;7283711;19;20191;-81
2023/11/22 11:26:21;;;;;;;23.40;15.33;;;14.50;99.90;;;;;;7280152;19;20227;-80
2023/11/22 11:28:49;;;;;;;20.77;14.00;;;14.50;99.90;;;;;;7281949;19;20215;-80
2023/11/22 11:31:16;;;;;;;26.10;14.23;;;14.60;99.90;;;;;;7279527;19;20192;-81
2023/11/22 11:33:51;;;;;;;21.37;14.27;;;15.00;99.90;;;;;;7279865;19;20216;-81
2023/11/22 11:36:31;;;;;;;22.57;14.30;;;15.80;99.90;;;;;;7281520;19;20207;-80
2023/11/22 11:39:00;;;;;;;20.77;13.73;;;16.60;99.90;;;;;;7288910;19;20197;-80
2023/11/22 11:41:28;;;;;;;21.77;13.40;;;17.00;99.90;;;;;;7289916;19;20185;-80
2023/11/22 11:43:56;;;;;;;23.07;15.33;;;17.00;99.90;;;;;;7287824;19;20188;-81
2023/11/22 11:46:28;;;;;;;23.83;14.97;;;16.80;99.90;;;;;;7287034;19;20195;-80
2023/11/22 11:48:55;;;;;;;22.47;14.13;;;17.10;99.90;;;;;;7288225;19;20192;-82
2023/11/22 11:51:28;;;;;;;22.23;14.57;;;17.40;99.90;;;;;;7285100;19;20274;-80
2023/11/22 11:53:55;;;;;;;18.73;14.10;;;17.90;99.90;;;;;;7286131;19;20647;-80
2023/11/22 11:56:22;;;;;;;18.80;13.17;;;18.30;99.90;;;;;;7287825;19;20734;-80
2023/11/22 11:58:50;;;;;;;21.10;13.47;;;18.70;99.90;;;;;;7289562;19;20186;-80
2023/11/22 12:01:17;;;;;;;21.13;14.13;;;19.10;99.90;;;;;;7285916;19;20189;-80
2023/11/22 12:03:43;;;;;;;18.37;13.53;;;19.70;99.90;;;;;;7286704;19;20208;-80
2023/11/22 12:06:09;;;;;;;19.90;14.93;;;20.10;99.90;;;;;;7286993;19;20210;-81
2023/11/22 12:08:36;;;;;;;21.87;14.20;;;20.00;99.90;;;;;;7287963;19;20629;-80
2023/11/22 12:11:04;;;;;;;18.20;13.17;;;19.50;99.90;;;;;;7288112;19;20185;-80
2023/11/22 12:13:30;;;;;;;20.23;14.07;;;18.90;99.90;;;;;;7301978;19;20654;-80
2023/11/22 12:15:56;;;;;;;19.80;12.93;;;18.50;99.90;;;;;;7307643;19;20320;-79
2023/11/22 12:18:23;;;;;;;18.77;13.97;;;18.40;99.90;;;;;;7286289;19;20198;-80
2023/11/22 12:20:56;;;;;;;18.30;13.47;;;18.30;99.90;;;;;;7285908;19;20202;-80
2023/11/22 12:23:27;;;;;;;21.00;14.23;;;17.60;99.90;;;;;;7286417;19;21888;-79
2023/11/22 12:26:01;;;;;;;19.77;13.57;;;17.20;99.90;;;;;;7287135;19;20203;-80
2023/11/22 12:28:28;;;;;;;19.37;13.20;;;16.80;99.90;;;;;;7287227;19;20656;-80
2023/11/22 12:30:54;;;;;;;21.27;13.90;;;16.30;99.90;;;;;;7287215;19;20192;-77
2023/11/22 12:33:19;;;;;;;20.37;13.33;;;16.00;99.90;;;;;;7286753;19;20200;-77